Terminal Aerodrome Forecast
Issued by NWS

Home | Current Version | Previous Version | Text Only | Print | Product List | Glossary On
Versions: 1 2 3 4 5 6 7 8 9 10 11 12 13 14 15
354
FTPA31 PHFO 230302 AAA
TAFHJR
TAF AMD
PHJR 230302Z 2303/2324 07008KT P6SM FEW050
     FM230600 VRB04KT P6SM SKC
     FM232100 11008G15KT P6SM FEW030 SCT060=

USA.gov is the U.S. government's official web portal to all federal, state and local government web resources and services.